createdAt,value
2022-12-11T00:02:01.894Z,100.00
2022-12-11T00:04:29.031Z,100.00
2022-12-11T00:06:58.216Z,100.00
2022-12-11T00:09:25.701Z,100.00
2022-12-11T00:11:52.797Z,100.00
2022-12-11T00:14:22.514Z,100.00
2022-12-11T00:16:49.751Z,100.00
2022-12-11T00:19:19.639Z,100.00
2022-12-11T00:21:46.993Z,99.93
2022-12-11T00:24:16.765Z,99.89
2022-12-11T00:26:44.930Z,99.53
2022-12-11T00:29:15.397Z,99.31
2022-12-11T00:31:45.061Z,99.27
2022-12-11T00:34:14.415Z,99.49
2022-12-11T00:36:44.531Z,99.47
2022-12-11T00:39:11.726Z,99.23
2022-12-11T00:41:38.840Z,99.49
2022-12-11T00:44:08.171Z,99.43
2022-12-11T00:46:37.643Z,99.42
2022-12-11T00:49:07.273Z,99.23
2022-12-11T00:51:34.342Z,99.41
2022-12-11T00:54:01.537Z,98.95
2022-12-11T00:56:31.090Z,99.38
2022-12-11T00:59:00.313Z,99.44
2022-12-11T01:01:29.615Z,99.50
2022-12-11T01:03:59.146Z,99.23
2022-12-11T01:06:27.928Z,99.21
2022-12-11T01:09:15.026Z,99.13
2022-12-11T01:11:44.435Z,99.15
2022-12-11T01:14:12.021Z,99.10
2022-12-11T01:16:41.383Z,98.91
2022-12-11T01:19:15.850Z,98.79
2022-12-11T01:21:45.251Z,99.00
2022-12-11T01:24:14.642Z,99.30
2022-12-11T01:26:46.281Z,99.30
2022-12-11T01:29:13.414Z,99.15
2022-12-11T01:31:42.837Z,99.05
2022-12-11T01:34:12.375Z,99.17
2022-12-11T01:36:44.046Z,99.26
2022-12-11T01:39:11.222Z,99.10
2022-12-11T01:41:40.637Z,99.20
2022-12-11T01:44:16.566Z,99.07
2022-12-11T01:46:43.670Z,99.40
2022-12-11T01:49:15.165Z,99.50
2022-12-11T01:51:49.342Z,99.14
2022-12-11T01:54:22.188Z,99.23
2022-12-11T01:56:52.287Z,99.16
2022-12-11T01:59:24.603Z,99.23
2022-12-11T02:02:05.914Z,99.13
2022-12-11T02:04:39.355Z,99.23
2022-12-11T02:07:06.529Z,98.92
2022-12-11T02:09:37.324Z,98.80
2022-12-11T02:12:26.723Z,98.71
2022-12-11T02:15:22.570Z,98.75
2022-12-11T02:18:22.070Z,98.75
2022-12-11T02:21:25.447Z,98.68
2022-12-11T02:24:16.186Z,98.60
2022-12-11T02:27:15.725Z,98.54
2022-12-11T02:29:58.706Z,98.90
2022-12-11T02:32:55.673Z,98.56
2022-12-11T02:35:33.429Z,98.80
2022-12-11T02:38:25.288Z,98.77
2022-12-11T02:41:00.167Z,98.80
2022-12-11T02:43:32.422Z,98.94
2022-12-11T02:46:01.388Z,99.05
2022-12-11T02:48:32.303Z,98.89
2022-12-11T02:51:05.335Z,98.77
2022-12-11T02:53:38.100Z,99.10
2022-12-11T02:56:16.509Z,98.92
2022-12-11T02:58:58.381Z,99.02
2022-12-11T03:01:30.746Z,99.06
2022-12-11T03:03:58.404Z,98.71
2022-12-11T03:06:33.014Z,98.67
2022-12-11T03:09:00.131Z,98.58
2022-12-11T03:11:27.358Z,98.70
2022-12-11T03:13:55.045Z,98.40
2022-12-11T03:16:45.013Z,98.37
2022-12-11T03:19:31.939Z,98.18
2022-12-11T03:22:07.398Z,98.36
2022-12-11T03:24:41.679Z,98.38
2022-12-11T03:27:40.576Z,98.39
2022-12-11T03:30:12.737Z,98.54
2022-12-11T03:32:53.842Z,98.21
2022-12-11T03:35:31.387Z,98.35
2022-12-11T03:38:02.121Z,98.38
2022-12-11T03:40:33.230Z,98.49
2022-12-11T03:43:00.946Z,98.57
2022-12-11T03:45:30.082Z,98.46
2022-12-11T03:47:59.539Z,98.38
2022-12-11T03:50:31.225Z,98.41
2022-12-11T03:53:03.358Z,98.41
2022-12-11T03:55:33.818Z,98.25
2022-12-11T03:58:01.067Z,98.40
2022-12-11T04:00:29.202Z,98.28
2022-12-11T04:03:14.946Z,98.00
2022-12-11T04:05:52.956Z,98.06
2022-12-11T04:08:21.182Z,98.08
2022-12-11T04:11:09.429Z,98.15
2022-12-11T04:13:40.643Z,98.14
2022-12-11T04:16:08.309Z,98.04
2022-12-11T04:18:54.375Z,98.28
2022-12-11T04:21:42.413Z,98.47
2022-12-11T04:24:15.297Z,98.50
2022-12-11T04:26:47.158Z,98.60
2022-12-11T04:29:15.110Z,98.40
2022-12-11T04:31:45.696Z,98.69
2022-12-11T04:34:12.738Z,98.50
2022-12-11T04:36:42.250Z,98.46
2022-12-11T04:39:11.885Z,98.32
2022-12-11T04:41:39.022Z,98.52
2022-12-11T04:44:10.913Z,98.71
2022-12-11T04:46:40.406Z,98.77
2022-12-11T04:49:10.134Z,98.52
2022-12-11T04:51:39.607Z,98.72
2022-12-11T04:54:09.046Z,98.81
2022-12-11T04:56:36.149Z,98.80
2022-12-11T04:59:05.635Z,98.74
2022-12-11T05:01:32.730Z,98.93
2022-12-11T05:04:01.910Z,98.72
2022-12-11T05:06:31.443Z,98.69
2022-12-11T05:09:00.750Z,98.57
2022-12-11T05:11:33.478Z,98.50
2022-12-11T05:14:02.992Z,98.55
2022-12-11T05:16:30.177Z,98.82
2022-12-11T05:18:57.378Z,98.96
2022-12-11T05:21:24.541Z,98.88
2022-12-11T05:23:51.609Z,98.86
2022-12-11T05:26:20.005Z,98.69
2022-12-11T05:28:51.663Z,98.52
2022-12-11T05:31:21.398Z,98.63
2022-12-11T05:33:50.163Z,98.91
2022-12-11T05:36:24.090Z,98.72
2022-12-11T05:38:52.030Z,98.55
2022-12-11T05:41:22.112Z,98.66
2022-12-11T05:43:49.248Z,98.71
2022-12-11T05:46:19.665Z,98.63
2022-12-11T05:48:51.718Z,98.54
2022-12-11T05:51:21.515Z,98.40
2022-12-11T05:53:52.058Z,98.20
2022-12-11T05:56:29.973Z,98.28
2022-12-11T05:58:58.535Z,98.38
2022-12-11T06:01:32.342Z,98.25
2022-12-11T06:04:00.277Z,98.15
2022-12-11T06:06:28.355Z,98.06
2022-12-11T06:08:59.041Z,97.88
2022-12-11T06:11:28.351Z,98.06
2022-12-11T06:13:56.133Z,97.91
2022-12-11T06:16:23.781Z,97.73
2022-12-11T06:18:57.884Z,97.96
2022-12-11T06:21:33.972Z,97.87
2022-12-11T06:24:03.714Z,97.95
2022-12-11T06:26:33.067Z,98.12
2022-12-11T06:29:05.218Z,98.07
2022-12-11T06:31:34.823Z,97.97
2022-12-11T06:34:02.008Z,97.88
2022-12-11T06:36:29.137Z,97.75
2022-12-11T06:38:58.496Z,97.75
2022-12-11T06:41:25.829Z,97.62
2022-12-11T06:43:52.983Z,97.42
2022-12-11T06:46:20.738Z,97.63
2022-12-11T06:48:48.934Z,97.26
2022-12-11T06:51:20.296Z,97.28
2022-12-11T06:53:55.802Z,97.19
2022-12-11T06:56:26.171Z,97.17
2022-12-11T06:58:53.351Z,97.21
2022-12-11T07:01:21.760Z,97.11
2022-12-11T07:03:52.227Z,97.43
2022-12-11T07:06:19.414Z,97.58
2022-12-11T07:08:46.530Z,97.03
2022-12-11T07:11:18.037Z,96.61
2022-12-11T07:13:45.534Z,96.01
2022-12-11T07:16:14.218Z,95.79
2022-12-11T07:18:52.609Z,95.64
2022-12-11T07:21:22.280Z,95.38
2022-12-11T07:23:51.922Z,95.11
2022-12-11T07:26:21.391Z,95.13
2022-12-11T07:28:48.934Z,94.99
2022-12-11T07:31:25.693Z,94.83
2022-12-11T07:33:56.972Z,94.64
2022-12-11T07:36:24.699Z,94.65
2022-12-11T07:38:52.920Z,94.89
2022-12-11T07:41:23.359Z,95.23
2022-12-11T07:43:54.581Z,95.41
2022-12-11T07:46:26.915Z,95.51
2022-12-11T07:48:54.161Z,95.97
2022-12-11T07:51:27.990Z,96.28
2022-12-11T07:53:57.563Z,96.76
2022-12-11T07:56:25.350Z,97.08
2022-12-11T07:58:52.447Z,97.20
2022-12-11T08:01:21.762Z,97.26
2022-12-11T08:03:52.153Z,97.54
2022-12-11T08:06:21.408Z,97.96
2022-12-11T08:08:50.908Z,98.23
2022-12-11T08:11:17.999Z,98.53
2022-12-11T08:13:45.145Z,98.67
2022-12-11T08:16:18.003Z,98.98
2022-12-11T08:18:46.890Z,99.27
2022-12-11T08:21:19.644Z,99.07
2022-12-11T08:23:46.762Z,99.00
2022-12-11T08:26:28.984Z,98.93
2022-12-11T08:28:58.762Z,98.92
2022-12-11T08:31:26.803Z,98.72
2022-12-11T08:33:57.416Z,98.05
2022-12-11T08:36:27.757Z,98.18
2022-12-11T08:38:58.266Z,98.12
2022-12-11T08:41:30.725Z,97.88
2022-12-11T08:44:01.726Z,97.47
2022-12-11T08:46:35.606Z,97.48
2022-12-11T08:49:05.084Z,97.50
2022-12-11T08:51:34.506Z,97.15
2022-12-11T08:54:01.955Z,97.00
2022-12-11T08:56:34.531Z,97.29
2022-12-11T08:59:06.216Z,97.22
2022-12-11T09:01:33.431Z,96.90
2022-12-11T09:04:00.594Z,96.69
2022-12-11T09:06:30.810Z,96.57
2022-12-11T09:09:02.172Z,96.43
2022-12-11T09:11:36.686Z,96.35
2022-12-11T09:14:07.912Z,96.89
2022-12-11T09:16:41.262Z,97.00
2022-12-11T09:19:13.536Z,96.92
2022-12-11T09:21:46.380Z,96.86
2022-12-11T09:24:16.390Z,97.60
2022-12-11T09:26:43.942Z,99.69
2022-12-11T09:29:12.323Z,99.35
2022-12-11T09:31:40.005Z,99.32
2022-12-11T09:34:13.215Z,99.46
2022-12-11T09:36:41.634Z,99.78
2022-12-11T09:39:09.414Z,99.73
2022-12-11T09:41:46.594Z,99.73
2022-12-11T09:44:18.082Z,99.38
2022-12-11T09:46:48.960Z,99.16
2022-12-11T09:49:34.803Z,99.09
2022-12-11T09:52:26.666Z,99.38
2022-12-11T09:54:59.248Z,99.44
2022-12-11T09:57:42.006Z,99.56
2022-12-11T10:00:21.840Z,99.67
2022-12-11T10:03:22.085Z,99.94
2022-12-11T10:05:52.128Z,100.00
2022-12-11T10:08:40.069Z,100.00
2022-12-11T10:11:56.147Z,100.00
2022-12-11T10:14:35.440Z,100.00
2022-12-11T10:17:13.263Z,99.47
2022-12-11T10:19:41.521Z,99.19
2022-12-11T10:22:24.567Z,100.00
2022-12-11T10:25:12.707Z,100.00
2022-12-11T10:27:40.830Z,100.00
2022-12-11T10:30:36.454Z,100.00
2022-12-11T10:33:06.582Z,100.00
2022-12-11T10:35:46.266Z,100.00
2022-12-11T10:38:30.352Z,100.00
2022-12-11T10:41:01.252Z,100.00
2022-12-11T10:43:38.851Z,100.00
2022-12-11T10:46:16.942Z,100.00
2022-12-11T10:49:04.378Z,100.00
2022-12-11T10:51:42.005Z,100.00
2022-12-11T10:54:32.353Z,100.00
2022-12-11T10:57:03.443Z,100.00
2022-12-11T10:59:45.589Z,100.00
2022-12-11T11:02:29.405Z,100.00
2022-12-11T11:04:59.256Z,100.00
2022-12-11T11:07:29.586Z,100.00
2022-12-11T11:10:05.772Z,100.00
2022-12-11T11:12:41.577Z,100.00
2022-12-11T11:15:19.450Z,100.00
2022-12-11T11:17:55.057Z,100.00
2022-12-11T11:20:26.477Z,100.00
2022-12-11T11:22:57.441Z,100.00
2022-12-11T11:25:29.741Z,100.00
2022-12-11T11:28:03.086Z,100.00
2022-12-11T11:30:34.030Z,100.00
2022-12-11T11:33:05.667Z,100.00
2022-12-11T11:35:35.244Z,100.00
2022-12-11T11:38:20.047Z,100.00
2022-12-11T11:40:58.150Z,100.00
2022-12-11T11:43:53.546Z,100.00
2022-12-11T11:46:32.235Z,100.00
2022-12-11T11:49:29.901Z,100.00
2022-12-11T11:52:12.078Z,100.00
2022-12-11T11:54:56.865Z,100.00
2022-12-11T11:57:39.043Z,100.00
2022-12-11T12:00:20.568Z,100.00
2022-12-11T12:02:54.746Z,100.00
2022-12-11T12:05:34.465Z,100.00
2022-12-11T12:08:39.021Z,100.00
2022-12-11T12:11:13.324Z,100.00
2022-12-11T12:14:51.581Z,100.00
2022-12-11T12:17:55.390Z,100.00
2022-12-11T12:21:01.857Z,100.00
2022-12-11T12:23:58.102Z,100.00
2022-12-11T12:26:30.318Z,100.00
2022-12-11T12:29:11.844Z,100.00
2022-12-11T12:31:41.802Z,100.00
2022-12-11T12:34:33.494Z,100.00
2022-12-11T12:37:18.955Z,100.00
2022-12-11T12:40:16.707Z,100.00
2022-12-11T12:43:10.040Z,100.00
2022-12-11T12:45:56.253Z,100.00
2022-12-11T12:48:29.801Z,100.00
2022-12-11T12:50:57.569Z,100.00
2022-12-11T12:53:28.544Z,100.00
2022-12-11T12:55:56.537Z,100.00
2022-12-11T12:58:35.919Z,100.00
2022-12-11T13:01:22.490Z,100.00
2022-12-11T13:04:10.649Z,100.00
2022-12-11T13:06:50.653Z,100.00
2022-12-11T13:09:26.453Z,100.00
2022-12-11T13:11:57.912Z,100.00
2022-12-11T13:14:32.452Z,100.00
2022-12-11T13:17:36.963Z,100.00
2022-12-11T13:20:12.715Z,100.00
2022-12-11T13:23:09.742Z,100.00
2022-12-11T13:26:00.213Z,100.00
2022-12-11T13:28:41.878Z,100.00
2022-12-11T13:31:14.845Z,100.00
2022-12-11T13:33:46.655Z,100.00
2022-12-11T13:36:18.902Z,100.00
2022-12-11T13:38:54.833Z,100.00
2022-12-11T13:41:22.721Z,100.00
2022-12-11T13:43:50.950Z,100.00
2022-12-11T13:46:35.452Z,100.00
2022-12-11T13:49:05.026Z,100.00
2022-12-11T13:51:35.312Z,100.00
2022-12-11T13:54:17.227Z,100.00
2022-12-11T13:57:00.806Z,100.00
2022-12-11T13:59:31.361Z,100.00
2022-12-11T14:02:03.980Z,100.00
2022-12-11T14:04:33.820Z,100.00
2022-12-11T14:07:10.585Z,100.00
2022-12-11T14:09:43.561Z,100.00
2022-12-11T14:12:21.721Z,100.00
2022-12-11T14:14:56.887Z,100.00
2022-12-11T14:17:29.478Z,100.00
2022-12-11T14:19:59.331Z,100.00
2022-12-11T14:22:31.254Z,100.00
2022-12-11T14:25:05.342Z,100.00
2022-12-11T14:27:34.944Z,100.00
2022-12-11T14:30:11.310Z,100.00
2022-12-11T14:32:47.086Z,100.00
2022-12-11T14:35:31.778Z,100.00
2022-12-11T14:38:18.223Z,100.00
2022-12-11T14:40:49.621Z,100.00
2022-12-11T14:43:43.889Z,100.00
2022-12-11T14:46:18.813Z,100.00
2022-12-11T14:49:00.548Z,100.00
2022-12-11T14:51:36.660Z,100.00
2022-12-11T14:54:10.160Z,100.00
2022-12-11T14:56:39.688Z,100.00
2022-12-11T14:59:25.505Z,100.00
2022-12-11T15:02:02.143Z,100.00
2022-12-11T15:04:34.417Z,100.00
2022-12-11T15:07:01.582Z,100.00
2022-12-11T15:09:36.113Z,100.00
2022-12-11T15:12:12.383Z,100.00
2022-12-11T15:15:17.970Z,100.00
2022-12-11T15:17:52.485Z,100.00
2022-12-11T15:20:28.449Z,100.00
2022-12-11T15:23:00.002Z,100.00
2022-12-11T15:25:30.332Z,100.00
2022-12-11T15:28:00.049Z,100.00
2022-12-11T15:30:36.907Z,100.00
2022-12-11T15:33:10.914Z,100.00
2022-12-11T15:35:40.057Z,100.00
2022-12-11T15:38:43.424Z,100.00
2022-12-11T15:41:15.797Z,100.00
2022-12-11T15:43:44.750Z,100.00
2022-12-11T15:46:16.942Z,100.00
2022-12-11T15:48:44.096Z,100.00
2022-12-11T15:51:11.281Z,100.00
2022-12-11T15:53:40.940Z,100.00
2022-12-11T15:56:16.003Z,100.00
2022-12-11T15:58:44.787Z,100.00
2022-12-11T16:01:12.233Z,100.00
2022-12-11T16:03:41.950Z,100.00
2022-12-11T16:06:13.247Z,100.00
2022-12-11T16:08:40.354Z,100.00
2022-12-11T16:11:09.747Z,100.00
2022-12-11T16:13:36.885Z,100.00
2022-12-11T16:16:06.556Z,100.00
2022-12-11T16:18:35.917Z,100.00
2022-12-11T16:21:07.692Z,100.00
2022-12-11T16:23:37.123Z,100.00
2022-12-11T16:26:09.664Z,100.00
2022-12-11T16:28:41.642Z,100.00
2022-12-11T16:31:15.832Z,100.00
2022-12-11T16:33:43.476Z,100.00
2022-12-11T16:36:22.225Z,100.00
2022-12-11T16:38:53.792Z,100.00
2022-12-11T16:41:26.152Z,100.00
2022-12-11T16:43:56.574Z,100.00
2022-12-11T16:46:27.082Z,100.00
2022-12-11T16:48:54.339Z,100.00
2022-12-11T16:51:21.749Z,100.00
2022-12-11T16:53:51.109Z,100.00
2022-12-11T16:56:22.863Z,97.83
2022-12-11T16:58:50.029Z,97.11
2022-12-11T17:01:19.582Z,96.89
2022-12-11T17:03:49.204Z,97.08
2022-12-11T17:06:17.591Z,98.11
2022-12-11T17:08:47.067Z,98.58
2022-12-11T17:11:21.731Z,99.20
2022-12-11T17:13:56.433Z,99.67
2022-12-11T17:16:26.102Z,100.00
2022-12-11T17:18:53.692Z,100.00
2022-12-11T17:21:24.308Z,100.00
2022-12-11T17:23:57.425Z,100.00
2022-12-11T17:26:28.480Z,100.00
2022-12-11T17:28:56.881Z,100.00
2022-12-11T17:31:26.731Z,100.00
2022-12-11T17:33:54.065Z,100.00
2022-12-11T17:36:22.266Z,100.00
2022-12-11T17:38:51.725Z,100.00
2022-12-11T17:41:21.000Z,100.00
2022-12-11T17:43:52.902Z,100.00
2022-12-11T17:46:20.664Z,100.00
2022-12-11T17:48:52.287Z,100.00
2022-12-11T17:51:24.077Z,100.00
2022-12-11T17:53:55.208Z,100.00
2022-12-11T17:56:25.502Z,100.00
2022-12-11T17:58:52.623Z,100.00
2022-12-11T18:01:20.289Z,100.00
2022-12-11T18:03:52.228Z,100.00
2022-12-11T18:06:19.532Z,100.00
2022-12-11T18:08:49.160Z,100.00
2022-12-11T18:11:19.157Z,100.00
2022-12-11T18:13:49.301Z,100.00
2022-12-11T18:16:25.454Z,100.00
2022-12-11T18:18:58.114Z,100.00
2022-12-11T18:21:31.044Z,100.00
2022-12-11T18:23:59.924Z,100.00
2022-12-11T18:26:28.901Z,100.00
2022-12-11T18:28:58.292Z,100.00
2022-12-11T18:31:27.840Z,100.00
2022-12-11T18:33:55.057Z,100.00
2022-12-11T18:36:22.964Z,100.00
2022-12-11T18:38:52.140Z,100.00
2022-12-11T18:41:19.893Z,100.00
2022-12-11T18:43:47.323Z,100.00
2022-12-11T18:46:20.230Z,100.00
2022-12-11T18:48:52.051Z,100.00
2022-12-11T18:51:25.027Z,100.00
2022-12-11T18:53:52.445Z,100.00
2022-12-11T18:56:22.691Z,100.00
2022-12-11T18:58:55.226Z,100.00
2022-12-11T19:01:28.695Z,100.00
2022-12-11T19:04:02.673Z,100.00
2022-12-11T19:06:35.541Z,100.00
2022-12-11T19:09:05.013Z,100.00
2022-12-11T19:11:34.280Z,100.00
2022-12-11T19:14:04.760Z,100.00
2022-12-11T19:16:35.360Z,100.00
2022-12-11T19:19:05.622Z,100.00
2022-12-11T19:21:38.461Z,100.00
2022-12-11T19:24:07.686Z,100.00
2022-12-11T19:26:35.207Z,100.00
2022-12-11T19:29:02.391Z,100.00
2022-12-11T19:31:31.089Z,100.00
2022-12-11T19:33:58.660Z,100.00
2022-12-11T19:36:27.759Z,100.00
2022-12-11T19:39:01.096Z,100.00
2022-12-11T19:41:31.267Z,100.00
2022-12-11T19:44:02.112Z,100.00
2022-12-11T19:46:29.634Z,100.00
2022-12-11T19:48:58.686Z,100.00
2022-12-11T19:51:36.466Z,100.00
2022-12-11T19:54:04.848Z,100.00
2022-12-11T19:56:35.007Z,100.00
2022-12-11T19:59:06.110Z,100.00
2022-12-11T20:01:39.456Z,100.00
2022-12-11T20:04:10.230Z,100.00
2022-12-11T20:06:44.257Z,100.00
2022-12-11T20:09:14.618Z,100.00
2022-12-11T20:11:45.657Z,100.00
2022-12-11T20:14:22.833Z,100.00
2022-12-11T20:17:10.552Z,100.00
2022-12-11T20:19:38.547Z,100.00
2022-12-11T20:22:09.302Z,100.00
2022-12-11T20:24:36.699Z,100.00
2022-12-11T20:27:06.525Z,100.00
2022-12-11T20:29:33.608Z,100.00
2022-12-11T20:32:00.857Z,100.00
2022-12-11T20:34:30.238Z,100.00
2022-12-11T20:37:00.379Z,100.00
2022-12-11T20:39:27.647Z,100.00
2022-12-11T20:42:01.012Z,100.00
2022-12-11T20:44:32.863Z,100.00
2022-12-11T20:47:01.991Z,100.00
2022-12-11T20:49:31.430Z,100.00
2022-12-11T20:51:59.709Z,100.00
2022-12-11T20:54:27.067Z,100.00
2022-12-11T20:56:54.329Z,100.00
2022-12-11T20:59:22.191Z,100.00
2022-12-11T21:01:49.532Z,100.00
2022-12-11T21:04:16.724Z,100.00
2022-12-11T21:06:46.997Z,100.00
2022-12-11T21:09:17.698Z,100.00
2022-12-11T21:11:45.048Z,100.00
2022-12-11T21:14:13.498Z,100.00
2022-12-11T21:16:40.729Z,100.00
2022-12-11T21:19:16.538Z,100.00
2022-12-11T21:21:46.302Z,100.00
2022-12-11T21:24:17.345Z,100.00
2022-12-11T21:26:50.401Z,100.00
2022-12-11T21:29:22.293Z,100.00
2022-12-11T21:31:51.252Z,100.00
2022-12-11T21:34:25.263Z,100.00
2022-12-11T21:36:57.797Z,100.00
2022-12-11T21:39:26.247Z,100.00
2022-12-11T21:41:55.633Z,100.00
2022-12-11T21:47:12.223Z,100.00
2022-12-11T21:49:39.314Z,100.00
2022-12-11T21:52:09.004Z,100.00
2022-12-11T21:54:37.952Z,100.00
2022-12-11T21:57:09.946Z,100.00
2022-12-11T21:59:37.115Z,100.00
2022-12-11T22:02:04.561Z,100.00
2022-12-11T22:04:31.819Z,100.00
2022-12-11T22:07:01.021Z,100.00
2022-12-11T22:09:30.356Z,100.00
2022-12-11T22:11:59.765Z,100.00
2022-12-11T22:14:26.989Z,100.00
2022-12-11T22:16:54.142Z,100.00
2022-12-11T22:19:30.800Z,100.00
2022-12-11T22:22:02.067Z,100.00
2022-12-11T22:24:29.170Z,100.00
2022-12-11T22:26:58.625Z,100.00
2022-12-11T22:29:27.974Z,100.00
2022-12-11T22:31:57.486Z,100.00
2022-12-11T22:34:24.712Z,100.00
2022-12-11T22:36:54.415Z,100.00
2022-12-11T22:39:24.691Z,100.00
2022-12-11T22:41:51.823Z,100.00
2022-12-11T22:44:21.047Z,100.00
2022-12-11T22:46:50.869Z,100.00
2022-12-11T22:49:19.342Z,100.00
2022-12-11T22:51:51.432Z,100.00
2022-12-11T22:54:18.697Z,100.00
2022-12-11T22:56:48.155Z,100.00
2022-12-11T22:59:15.253Z,100.00
2022-12-11T23:01:44.763Z,100.00
2022-12-11T23:04:12.335Z,100.00
2022-12-11T23:06:39.511Z,100.00
2022-12-11T23:09:12.091Z,100.00
2022-12-11T23:11:42.005Z,100.00
2022-12-11T23:14:15.233Z,100.00
2022-12-11T23:16:45.353Z,100.00
2022-12-11T23:19:12.760Z,100.00
2022-12-11T23:21:44.794Z,100.00
2022-12-11T23:24:15.388Z,100.00
2022-12-11T23:26:44.901Z,100.00
2022-12-11T23:29:14.708Z,100.00
2022-12-11T23:31:41.812Z,100.00
2022-12-11T23:34:08.971Z,100.00
2022-12-11T23:36:38.521Z,100.00
2022-12-11T23:39:06.377Z,100.00
2022-12-11T23:41:33.542Z,100.00
2022-12-11T23:44:00.779Z,100.00
2022-12-11T23:46:27.973Z,100.00
2022-12-11T23:48:58.295Z,100.00
2022-12-11T23:51:25.813Z,100.00
2022-12-11T23:53:56.467Z,100.00
2022-12-11T23:56:28.860Z,100.00
2022-12-11T23:58:59.174Z,100.00
